メインページ
METAR-TAF:

METAR-TAF

空港 :

Schenectady County Airport

スケネクタディ, ニューヨーク, アメリカ合衆国

緯度: 42-51N, 経度: 073-56W, 海抜: 115m

現時点の気象観測

当レポートは5時間54分前の20:45(UTC)に作成
の風 3kt
気温 -1°C
湿度 93%
気圧 1012 hPa
視程: 2.0km
高度800ftの曇り
小雪

METAR: KSCH 062045Z 01003KT 1 1/4SM -SN OVC008 M01/M02 A2989

時間: 21:39 (02:39 UTC)


TAF: 見つかりません

4,000以上の空港の気象観測と天気予報(METAR報とTAF報)

利用可能な観測所は地図上に黄色い丸と赤い丸で示す。

丸の上にカーソルを重ねると観測所名を参照できる。

次にクリックすると気象観測と天気予報を参照できる。

マップの切り替え:黒色「×」印の緑ボタンをクリックして拡大、「-」印の緑ボタンをクリックして縮小、緑色の三角印をクリックして隣りの地図に切り替え


METAR-TAF: